Stafford Township, New Jersey
Current Conditions -  °F | °C
As of 9:55 AM on Saturday 01 Nov 2014 (Local Time) from KMJX Reporting Station
Overcast Overcast  
Wind Chill:   Ceiling: 6000
Heat Index:   Visibility: 4mi
Dew Point:   Wind: 7mph
Humidity: 87%   Direction: 10°N
Pressure: 29.78"   Gusts: NA
Location:  39.7102°N, 74.2577°W
Report Text: KMJX 011355Z AUTO 01006KT 4SM SCT046 OVC060 07/05 A2978 RMK AO1
Loading
Personal Weather Stations






























Interactive Weather Map
Tropical Storm Tracking
New forecast layout! Learn more

10-Day Weather Forecast

Advertisements
Track Severe Weather on mobile